Time;durP1;ratioP1;P1;durP2;ratioP2;P2;SDS_P1;SDS_P2;PMS_P1;PMS_P2;Temp;Humidity;BMP_temperature;BMP_pressure;BME280_temperature;BME280_humidity;BME280_pressure;Samples;Min_cycle;Max_cycle;Signal;HPM_P1;HPM_P2
2024/01/26 05:22:32;;;;;;;2.75;1.30;;;;;;;8.91;100.00;101394.31;5085943;28;21018;-33
2024/01/26 05:24:58;;;;;;;1.48;1.27;;;;;;;8.93;100.00;101394.63;5089191;28;20024;-31
2024/01/26 05:27:23;;;;;;;4.47;1.50;;;;;;;8.93;100.00;101386.28;5088746;28;20032;-32
2024/01/26 05:29:49;;;;;;;1.75;1.50;;;;;;;8.92;100.00;101388.25;5078767;28;20060;-37
2024/01/26 05:32:14;;;;;;;5.57;1.67;;;;;;;8.91;100.00;101394.31;5068642;28;20033;-33
2024/01/26 05:34:40;;;;;;;1.52;1.38;;;;;;;8.96;100.00;101396.50;5068799;28;20458;-32
2024/01/26 05:37:05;;;;;;;1.30;1.20;;;;;;;8.97;100.00;101389.69;5068968;28;20128;-32
2024/01/26 05:39:32;;;;;;;3.05;1.90;;;;;;;9.04;100.00;101390.16;5068742;28;20032;-36
2024/01/26 05:41:57;;;;;;;6.13;1.35;;;;;;;9.00;100.00;101391.53;5068614;28;20024;-32
2024/01/26 05:44:23;;;;;;;4.05;1.77;;;;;;;9.13;100.00;101385.84;5068520;28;20506;-35
2024/01/26 05:46:48;;;;;;;1.58;1.20;;;;;;;9.19;100.00;101390.34;5068261;28;20040;-32
2024/01/26 05:49:14;;;;;;;4.35;1.25;;;;;;;9.20;100.00;101393.91;5068422;28;20044;-32
2024/01/26 05:51:39;;;;;;;3.72;1.60;;;;;;;9.23;100.00;101401.31;5068484;28;20114;-34
2024/01/26 05:54:05;;;;;;;2.00;1.50;;;;;;;9.25;100.00;101394.06;5068373;28;20067;-31
2024/01/26 05:56:30;;;;;;;2.22;1.63;;;;;;;9.28;100.00;101395.94;5068230;28;20032;-33
2024/01/26 05:58:55;;;;;;;1.60;1.30;;;;;;;9.26;100.00;101403.97;5068087;28;20071;-34
2024/01/26 06:01:21;;;;;;;1.95;1.10;;;;;;;9.28;100.00;101407.06;5068111;28;20044;-31
2024/01/26 06:03:46;;;;;;;3.25;1.13;;;;;;;9.32;100.00;101399.31;5068334;28;20033;-32
2024/01/26 06:06:11;;;;;;;1.40;1.08;;;;;;;9.40;100.00;101397.00;5068007;28;20559;-35
2024/01/26 06:08:40;;;;;;;1.80;1.15;;;;;;;9.31;100.00;101411.72;5067854;28;20606;-35
2024/01/26 06:11:06;;;;;;;1.75;1.30;;;;;;;9.31;100.00;101405.38;5068001;28;20075;-33
2024/01/26 06:13:31;;;;;;;3.00;1.30;;;;;;;9.40;100.00;101413.72;5068121;28;20072;-32
2024/01/26 06:15:56;;;;;;;1.45;1.10;;;;;;;9.41;100.00;101406.91;5068013;28;20724;-32
2024/01/26 06:18:22;;;;;;;1.52;1.30;;;;;;;9.39;100.00;101411.41;5067692;28;20032;-31
2024/01/26 06:20:47;;;;;;;3.63;1.75;;;;;;;9.33;100.00;101425.91;5067785;28;20496;-31
2024/01/26 06:23:13;;;;;;;2.55;1.38;;;;;;;9.19;100.00;101418.19;5067859;28;20029;-33
2024/01/26 06:25:38;;;;;;;2.30;1.33;;;;;;;9.29;100.00;101425.31;5067715;28;20045;-33
2024/01/26 06:28:04;;;;;;;1.63;1.08;;;;;;;9.26;100.00;101426.22;5067379;28;20129;-39
2024/01/26 06:30:29;;;;;;;2.50;1.50;;;;;;;9.35;100.00;101428.25;5067525;28;20126;-33
2024/01/26 06:32:54;;;;;;;2.00;1.35;;;;;;;9.36;100.00;101424.22;5059771;28;20053;-33
2024/01/26 06:35:20;;;;;;;2.53;1.20;;;;;;;9.18;100.00;101419.44;5054319;28;20036;-37
2024/01/26 06:37:45;;;;;;;2.58;1.48;;;;;;;9.28;100.00;101411.88;5054222;28;20111;-32
2024/01/26 06:40:11;;;;;;;4.47;1.40;;;;;;;9.32;100.00;101418.03;5053790;28;20035;-33
2024/01/26 06:42:40;;;;;;;2.30;1.10;;;;;;;9.40;100.00;101422.06;5054212;28;20033;-33
2024/01/26 06:45:15;;;;;;;1.95;1.20;;;;;;;9.43;100.00;101415.56;5054059;28;20021;-38
2024/01/26 06:47:40;;;;;;;2.53;1.38;;;;;;;9.47;100.00;101416.22;5043408;28;20117;-35
2024/01/26 06:50:06;;;;;;;3.60;1.42;;;;;;;9.52;100.00;101412.03;5060368;28;20115;-33
2024/01/26 06:52:32;;;;;;;8.45;1.88;;;;;;;14.91;100.00;101400.84;5060607;28;20040;-30
2024/01/26 06:54:57;;;;;;;4.93;1.52;;;;;;;15.00;94.50;101397.84;5053351;28;20037;-30
2024/01/26 06:57:23;;;;;;;1.10;0.90;;;;;;;11.33;100.00;101409.56;5052304;28;20124;-32
2024/01/26 06:59:48;;;;;;;2.63;1.60;;;;;;;9.91;100.00;101413.06;5053320;28;20029;-37
2024/01/26 07:02:13;;;;;;;1.58;1.00;;;;;;;9.61;100.00;101400.88;5053701;28;20458;-32
2024/01/26 07:04:39;;;;;;;1.17;0.95;;;;;;;9.57;100.00;101403.06;5053945;28;20033;-34
2024/01/26 07:07:04;;;;;;;3.95;1.60;;;;;;;9.52;100.00;101398.09;5053416;28;20090;-36
2024/01/26 07:09:30;;;;;;;1.95;1.33;;;;;;;9.58;100.00;101396.25;5052997;28;20060;-33
2024/01/26 07:11:57;;;;;;;1.65;1.30;;;;;;;9.57;100.00;101389.91;5052573;28;20388;-35
2024/01/26 07:14:23;;;;;;;3.53;1.30;;;;;;;9.56;100.00;101382.00;5053181;28;20079;-34
2024/01/26 07:16:49;;;;;;;2.65;1.33;;;;;;;9.55;100.00;101383.25;5053302;28;20057;-34
2024/01/26 07:19:14;;;;;;;2.10;1.60;;;;;;;9.58;100.00;101382.31;5053105;28;20045;-37
2024/01/26 07:21:40;;;;;;;3.08;1.50;;;;;;;9.62;100.00;101393.28;5046753;28;20037;-32
2024/01/26 07:24:06;;;;;;;3.63;1.10;;;;;;;9.58;100.00;101407.38;5050573;28;20033;-33
2024/01/26 07:26:31;;;;;;;2.10;1.45;;;;;;;9.56;100.00;101393.91;5053345;28;20079;-34
2024/01/26 07:28:56;;;;;;;2.13;1.35;;;;;;;9.68;100.00;101389.41;5052984;28;20029;-37
2024/01/26 07:31:22;;;;;;;2.70;1.60;;;;;;;9.72;100.00;101398.38;5053250;28;20513;-35
2024/01/26 07:33:47;;;;;;;4.93;1.50;;;;;;;9.70;100.00;101400.88;5053300;28;20493;-33
2024/01/26 07:36:13;;;;;;;3.17;1.30;;;;;;;9.66;100.00;101385.53;5052972;28;20551;-37
2024/01/26 07:38:38;;;;;;;3.45;1.23;;;;;;;9.75;100.00;101371.59;5052925;28;20029;-32
2024/01/26 07:41:04;;;;;;;1.83;1.10;;;;;;;9.73;100.00;101374.09;5053026;28;20037;-40
2024/01/26 07:43:30;;;;;;;4.82;1.48;;;;;;;9.79;100.00;101367.44;5052611;28;20535;-33
2024/01/26 07:45:55;;;;;;;5.30;1.70;;;;;;;9.88;100.00;101365.84;5052437;28;20060;-33
2024/01/26 07:48:21;;;;;;;3.10;1.27;;;;;;;9.78;100.00;101353.97;5052693;28;20124;-37
2024/01/26 07:50:46;;;;;;;2.03;1.45;;;;;;;9.77;100.00;101353.19;5052917;28;20045;-33
2024/01/26 07:53:12;;;;;;;2.60;1.38;;;;;;;9.93;100.00;101342.94;5044655;28;20071;-34
2024/01/26 07:55:40;;;;;;;2.78;1.42;;;;;;;10.03;100.00;101336.09;5052812;28;20378;-35
2024/01/26 07:58:06;;;;;;;;;;;;;;;10.03;100.00;101342.44;5051440;28;20415;-35
2024/01/26 08:00:31;;;;;;;3.42;1.48;;;;;;;9.99;100.00;101358.56;5052671;28;19921;-33
2024/01/26 08:02:57;;;;;;;3.00;1.77;;;;;;;9.95;100.00;101348.81;5052167;28;20465;-37
2024/01/26 08:05:22;;;;;;;2.80;1.50;;;;;;;9.91;100.00;101318.31;5046757;28;20409;-33
2024/01/26 08:07:48;;;;;;;1.92;1.30;;;;;;;10.12;100.00;101327.72;5045826;28;20040;-32
2024/01/26 08:10:13;;;;;;;2.78;1.23;;;;;;;10.02;100.00;101345.72;5044602;28;20501;-37
2024/01/26 08:12:40;;;;;;;2.55;1.45;;;;;;;10.17;100.00;101331.84;5046552;28;20032;-32
2024/01/26 08:15:06;;;;;;;3.13;1.55;;;;;;;10.19;100.00;101330.16;5043660;28;20033;-37
2024/01/26 08:17:32;;;;;;;2.45;1.40;;;;;;;10.37;100.00;101331.34;5046390;28;20075;-33
2024/01/26 08:19:58;;;;;;;2.58;1.30;;;;;;;10.25;100.00;101327.50;5044190;28;20029;-34
2024/01/26 08:22:27;;;;;;;2.78;1.60;;;;;;;10.26;100.00;101338.22;5045667;28;20435;-32
2024/01/26 08:24:52;;;;;;;1.33;1.13;;;;;;;10.15;100.00;101323.22;5044924;28;20405;-33
2024/01/26 08:27:18;;;;;;;3.40;1.38;;;;;;;10.30;100.00;101312.16;5044474;28;20041;-32
2024/01/26 08:29:43;;;;;;;3.72;1.30;;;;;;;10.43;100.00;101327.47;5044875;28;20029;-37
2024/01/26 08:32:09;;;;;;;2.55;1.10;;;;;;;10.39;100.00;101331.66;5044664;28;20402;-32
2024/01/26 08:34:36;;;;;;;2.80;1.35;;;;;;;10.34;100.00;101340.69;5046320;28;20086;-32
2024/01/26 08:37:03;;;;;;;2.75;1.10;;;;;;;10.22;100.00;101351.53;5042978;28;20034;-38
2024/01/26 08:39:29;;;;;;;1.67;1.20;;;;;;;10.26;100.00;101349.34;5044238;28;20033;-32
2024/01/26 08:41:55;;;;;;;1.73;1.30;;;;;;;10.22;100.00;101347.97;5040295;28;20131;-33
2024/01/26 08:44:21;;;;;;;3.08;1.38;;;;;;;10.13;100.00;101340.41;5044457;28;20049;-33
2024/01/26 08:46:47;;;;;;;2.00;1.17;;;;;;;9.99;100.00;101335.50;5042787;28;20063;-34
2024/01/26 08:49:12;;;;;;;2.83;1.52;;;;;;;10.21;100.00;101324.88;5043153;28;20100;-35
2024/01/26 08:51:37;;;;;;;3.88;1.55;;;;;;;10.08;100.00;101327.09;5044120;28;20385;-36
2024/01/26 08:54:03;;;;;;;3.03;1.15;;;;;;;10.28;100.00;101320.25;5042825;28;20116;-37
2024/01/26 08:56:30;;;;;;;2.13;1.25;;;;;;;10.44;100.00;101319.84;5045677;28;20116;-36
2024/01/26 08:59:00;;;;;;;1.38;1.08;;;;;;;-147.11;100.00;72537.44;5048778;28;20047;-32
2024/01/26 09:02:25;;;;;;;2.20;1.30;;;;;;;-147.11;100.00;72537.44;5051647;28;20044;-33
2024/01/26 09:05:49;;;;;;;1.40;1.05;;;;;;;-147.11;100.00;72537.44;5051440;28;20037;-34
2024/01/26 09:09:13;;;;;;;2.17;1.00;;;;;;;-147.11;100.00;72537.44;5051344;28;20036;-32
2024/01/26 09:12:37;;;;;;;1.65;1.40;;;;;;;-147.11;100.00;72537.44;5051502;28;20029;-32
2024/01/26 09:16:01;;;;;;;2.13;1.30;;;;;;;-147.11;100.00;72537.44;5051434;28;20047;-34
2024/01/26 09:19:21;;;;;;;1.55;1.00;;;;;;;;;;5051505;28;20037;-33
2024/01/26 09:21:46;;;;;;;2.67;1.60;;;;;;;-147.11;100.00;72537.44;5051337;28;20396;-37
2024/01/26 09:24:12;;;;;;;2.53;1.50;;;;;;;-147.11;100.00;72537.44;5051272;28;20048;-32
2024/01/26 09:26:39;;;;;;;2.53;1.40;;;;;;;-147.11;100.00;72537.44;5051411;28;20083;-32
2024/01/26 09:29:05;;;;;;;2.22;1.15;;;;;;;-147.11;100.00;72537.44;5051170;28;20028;-32
2024/01/26 09:31:30;;;;;;;2.15;1.30;;;;;;;-147.11;100.00;72537.44;5051407;28;20111;-35
2024/01/26 09:33:56;;;;;;;2.47;1.40;;;;;;;-147.11;100.00;72537.44;5043483;28;20565;-32
2024/01/26 09:36:21;;;;;;;1.63;1.50;;;;;;;-147.11;100.00;72537.44;5049983;28;20044;-32
2024/01/26 09:38:47;;;;;;;1.77;1.20;;;;;;;-147.11;100.00;72537.44;5051135;28;20033;-35
2024/01/26 09:41:13;;;;;;;2.10;1.08;;;;;;;-147.11;100.00;72537.44;5051167;28;20040;-36
2024/01/26 09:43:38;;;;;;;2.90;1.27;;;;;;;-147.11;100.00;72537.44;5051304;28;20040;-35
2024/01/26 09:46:07;;;;;;;1.17;1.08;;;;;;;-147.11;100.00;72537.44;5051114;28;20473;-32
2024/01/26 09:48:33;;;;;;;1.25;1.02;;;;;;;-147.11;100.00;72537.44;5051017;28;20552;-33
2024/01/26 09:51:00;;;;;;;0.93;0.80;;;;;;;-147.11;100.00;72537.44;5051004;28;20029;-37
2024/01/26 09:53:26;;;;;;;3.30;1.30;;;;;;;-147.11;100.00;72537.44;5050995;28;20053;-33
2024/01/26 09:55:52;;;;;;;1.80;1.13;;;;;;;-147.11;100.00;72537.44;5051213;28;20063;-35
2024/01/26 09:58:18;;;;;;;2.78;1.05;;;;;;;-147.11;100.00;72537.44;5050912;28;20068;-32
2024/01/26 10:00:45;;;;;;;2.33;1.10;;;;;;;-147.11;100.00;72537.44;5050906;28;20033;-33
2024/01/26 10:03:11;;;;;;;1.80;1.23;;;;;;;-147.11;100.00;72537.44;5051106;28;20032;-34
2024/01/26 10:05:37;;;;;;;1.38;1.15;;;;;;;-147.11;100.00;72537.44;5050957;28;20083;-36
2024/01/26 10:08:10;;;;;;;2.38;1.10;;;;;;;-147.11;100.00;72537.44;5052610;28;20028;-32
2024/01/26 10:10:35;;;;;;;2.22;1.10;;;;;;;-147.11;100.00;72537.44;5054911;28;20025;-36
2024/01/26 10:13:04;;;;;;;1.63;1.17;;;;;;;-147.11;100.00;72537.44;5054536;28;20040;-34
2024/01/26 10:15:29;;;;;;;1.90;1.05;;;;;;;-147.11;100.00;72537.44;5054562;28;20033;-36
2024/01/26 10:17:55;;;;;;;1.00;0.90;;;;;;;-147.11;100.00;72537.44;5054600;28;20493;-32
2024/01/26 10:20:20;;;;;;;1.90;1.08;;;;;;;-147.11;100.00;72537.44;5054528;28;20048;-32
2024/01/26 10:22:46;;;;;;;0.75;0.70;;;;;;;-147.11;100.00;72537.44;5054631;28;20112;-32
2024/01/26 10:25:13;;;;;;;1.83;1.42;;;;;;;-147.11;100.00;72537.44;5054449;28;20029;-32
2024/01/26 10:27:39;;;;;;;2.38;1.30;;;;;;;-147.11;100.00;72537.44;5054093;28;20025;-32
2024/01/26 10:30:05;;;;;;;4.22;1.30;;;;;;;-147.11;100.00;72537.44;5054249;28;20381;-33
2024/01/26 10:32:32;;;;;;;1.95;1.33;;;;;;;-147.11;100.00;72537.44;5054521;28;20463;-31
2024/01/26 10:35:03;;;;;;;1.35;1.25;;;;;;;-147.11;100.00;72537.44;5054257;28;20037;-33
2024/01/26 10:37:31;;;;;;;1.35;1.00;;;;;;;-147.11;100.00;72537.44;5054062;28;20037;-33
2024/01/26 10:39:58;;;;;;;2.95;1.42;;;;;;;-147.11;100.00;72537.44;5054038;28;20028;-33
2024/01/26 10:42:26;;;;;;;1.97;1.10;;;;;;;-147.11;100.00;72537.44;5054000;28;20482;-37
2024/01/26 10:44:54;;;;;;;1.52;1.15;;;;;;;-147.11;100.00;72537.44;5054092;28;20086;-32
2024/01/26 10:47:21;;;;;;;1.75;1.25;;;;;;;-147.11;100.00;72537.44;5051653;28;20544;-32
2024/01/26 10:49:50;;;;;;;1.63;1.00;;;;;;;-147.11;100.00;72537.44;5053862;28;20037;-31
2024/01/26 10:52:20;;;;;;;1.33;0.85;;;;;;;-147.11;100.00;72537.44;5053789;28;20032;-36
2024/01/26 10:54:47;;;;;;;2.08;1.30;;;;;;;-147.11;100.00;72537.44;5053995;28;20182;-32
2024/01/26 10:57:14;;;;;;;1.40;0.95;;;;;;;-147.11;100.00;72537.44;5051694;28;20020;-34
2024/01/26 10:59:41;;;;;;;2.05;1.05;;;;;;;-147.11;100.00;72537.44;5053543;28;20040;-33
2024/01/26 11:02:20;;;;;;;3.23;1.23;;;;;;;-147.11;100.00;72537.44;5053666;28;20037;-33
2024/01/26 11:04:46;;;;;;;2.92;1.45;;;;;;;-147.11;100.00;72537.44;5053789;28;20279;-37
2024/01/26 11:07:13;;;;;;;1.48;0.90;;;;;;;-147.11;100.00;72537.44;5053591;28;20462;-38
2024/01/26 11:09:38;;;;;;;1.35;1.10;;;;;;;-147.11;100.00;72537.44;5053673;28;20037;-36
2024/01/26 11:12:08;;;;;;;1.70;1.15;;;;;;;-147.11;100.00;72537.44;5053602;28;20029;-32
2024/01/26 11:14:34;;;;;;;1.30;1.00;;;;;;;-147.11;100.00;72537.44;5053636;28;20060;-32
2024/01/26 11:17:09;;;;;;;1.50;1.00;;;;;;;-147.11;100.00;72537.44;5053197;28;20104;-33
2024/01/26 11:19:35;;;;;;;2.28;1.40;;;;;;;-147.11;100.00;72537.44;5053217;28;20032;-32
2024/01/26 11:22:04;;;;;;;2.45;1.25;;;;;;;-147.11;100.00;72537.44;5053330;28;20033;-34
2024/01/26 11:24:32;;;;;;;2.05;1.27;;;;;;;-147.11;100.00;72537.44;5053445;28;20037;-32
2024/01/26 11:26:59;;;;;;;1.65;1.23;;;;;;;-147.11;100.00;72537.44;5053036;28;20481;-33
2024/01/26 11:29:32;;;;;;;2.25;1.30;;;;;;;-147.11;100.00;72537.44;5053148;28;20111;-32
2024/01/26 11:31:58;;;;;;;2.05;1.30;;;;;;;-147.11;100.00;72537.44;5053159;28;20131;-32
2024/01/26 11:34:24;;;;;;;3.00;1.40;;;;;;;-147.11;100.00;72537.44;5053016;28;20083;-34
2024/01/26 11:37:06;;;;;;;3.17;1.23;;;;;;;-147.11;100.00;72537.44;5048574;28;20045;-34
2024/01/26 11:39:32;;;;;;;3.38;1.83;;;;;;;-147.11;100.00;72537.44;5047093;28;20166;-33
2024/01/26 11:41:58;;;;;;;2.35;1.60;;;;;;;-147.11;100.00;72537.44;5045075;28;20037;-32
2024/01/26 11:44:30;;;;;;;3.15;1.45;;;;;;;-147.11;100.00;72537.44;5045950;28;20039;-32
2024/01/26 11:46:55;;;;;;;2.65;1.52;;;;;;;-147.11;100.00;72537.44;5049506;28;20040;-36
2024/01/26 11:49:21;;;;;;;3.35;2.15;;;;;;;-147.11;100.00;72537.44;5046720;28;20045;-38
2024/01/26 11:51:47;;;;;;;2.30;1.80;;;;;;;-147.11;100.00;72537.44;5027014;28;20099;-37
2024/01/26 11:54:12;;;;;;;2.17;1.48;;;;;;;-147.11;100.00;72537.44;5044233;28;20048;-34
2024/01/26 11:56:38;;;;;;;2.50;1.45;;;;;;;-147.11;100.00;72537.44;5052689;28;20091;-35
2024/01/26 11:59:05;;;;;;;2.53;1.50;;;;;;;-147.11;100.00;72537.44;5052383;28;20401;-37
2024/01/26 12:01:31;;;;;;;4.40;1.80;;;;;;;-147.11;100.00;72537.44;5052279;28;20033;-35
2024/01/26 12:03:56;;;;;;;2.75;1.45;;;;;;;-147.11;100.00;72537.44;5052149;28;20091;-36
2024/01/26 12:06:22;;;;;;;3.95;1.50;;;;;;;-147.11;100.00;72537.44;5052025;28;20047;-36
2024/01/26 12:08:47;;;;;;;2.53;1.40;;;;;;;-147.11;100.00;72537.44;5052016;28;20036;-37
2024/01/26 12:11:13;;;;;;;2.75;1.80;;;;;;;-147.11;100.00;72537.44;5052290;28;20480;-34
2024/01/26 12:13:39;;;;;;;3.83;1.83;;;;;;;-147.11;100.00;72537.44;5051148;28;20032;-34
2024/01/26 12:16:05;;;;;;;1.98;1.50;;;;;;;-147.11;100.00;72537.44;5052135;28;20033;-35
2024/01/26 12:18:31;;;;;;;3.17;1.75;;;;;;;-147.11;100.00;72537.44;5051921;28;20535;-33
2024/01/26 12:20:56;;;;;;;2.88;1.58;;;;;;;-147.11;100.00;72537.44;5052099;28;20037;-34
2024/01/26 12:23:22;;;;;;;2.25;1.38;;;;;;;-147.11;100.00;72537.44;5052136;28;20578;-34
2024/01/26 12:25:52;;;;;;;2.88;1.60;;;;;;;-147.11;100.00;72537.44;5052075;28;20029;-34
2024/01/26 12:28:18;;;;;;;4.53;1.65;;;;;;;-147.11;100.00;72537.44;5051727;28;20059;-37
2024/01/26 12:30:47;;;;;;;3.25;1.63;;;;;;;-147.11;100.00;72537.44;5051443;28;20051;-34
2024/01/26 12:33:12;;;;;;;2.83;1.50;;;;;;;-147.11;100.00;72537.44;5051876;28;20033;-35
2024/01/26 12:35:41;;;;;;;4.28;1.50;;;;;;;-147.11;100.00;72537.44;5052031;28;20078;-36
2024/01/26 12:38:07;;;;;;;1.40;1.30;;;;;;;-147.11;100.00;72537.44;5051589;28;20492;-34
2024/01/26 12:40:32;;;;;;;4.88;1.85;;;;;;;-147.11;100.00;72537.44;5051734;28;20125;-34
2024/01/26 12:43:00;;;;;;;4.53;2.30;;;;;;;-147.11;100.00;72537.44;5051129;28;20029;-34
2024/01/26 12:45:25;;;;;;;5.18;2.30;;;;;;;-147.11;100.00;72537.44;5044984;28;20540;-37
2024/01/26 12:47:51;;;;;;;6.60;2.15;;;;;;;-147.11;100.00;72537.44;5044433;28;20116;-34
2024/01/26 12:50:16;;;;;;;4.50;2.20;;;;;;;-147.11;100.00;72537.44;5048174;28;20397;-38
2024/01/26 12:52:42;;;;;;;2.42;1.88;;;;;;;-147.11;100.00;72537.44;5051792;28;20104;-36
2024/01/26 12:55:08;;;;;;;2.38;1.70;;;;;;;-147.11;100.00;72537.44;5051737;28;20029;-34
2024/01/26 12:57:33;;;;;;;3.60;1.80;;;;;;;-147.11;100.00;72537.44;5043257;28;20045;-38
2024/01/26 12:59:59;;;;;;;2.03;1.38;;;;;;;-147.11;100.00;72537.44;5051461;28;20456;-34
2024/01/26 13:02:24;;;;;;;3.20;1.77;;;;;;;-147.11;100.00;72537.44;5051542;28;20079;-34
2024/01/26 13:04:52;;;;;;;3.90;2.50;;;;;;;-147.11;100.00;72537.44;5048425;28;20497;-36
2024/01/26 13:07:18;;;;;;;2.97;1.92;;;;;;;-147.11;100.00;72537.44;5049011;28;20041;-35
2024/01/26 13:09:43;;;;;;;3.60;1.92;;;;;;;-147.11;100.00;72537.44;5051252;28;20075;-38
2024/01/26 13:12:09;;;;;;;2.45;1.65;;;;;;;-147.11;100.00;72537.44;5050404;28;20110;-38
2024/01/26 13:14:34;;;;;;;2.60;1.65;;;;;;;-147.11;100.00;72537.44;5051227;28;20060;-36
2024/01/26 13:17:00;;;;;;;2.95;1.98;;;;;;;-147.11;100.00;72537.44;5051214;28;20178;-34
2024/01/26 13:19:25;;;;;;;2.78;1.92;;;;;;;-147.11;100.00;72537.44;5051535;28;20033;-38
2024/01/26 13:21:51;;;;;;;2.95;2.10;;;;;;;-147.11;100.00;72537.44;5051395;28;20087;-36
2024/01/26 13:24:16;;;;;;;2.78;1.88;;;;;;;-147.11;100.00;72537.44;5051519;28;20045;-38
2024/01/26 13:26:44;;;;;;;2.50;2.20;;;;;;;-147.11;100.00;72537.44;5051393;28;20044;-35
2024/01/26 13:29:09;;;;;;;3.63;2.13;;;;;;;-147.11;100.00;72537.44;5051115;28;20040;-36
2024/01/26 13:31:35;;;;;;;2.33;2.00;;;;;;;-147.11;100.00;72537.44;5051567;28;20037;-40
2024/01/26 13:34:00;;;;;;;4.03;2.38;;;;;;;-147.11;100.00;72537.44;5051397;28;20447;-39
2024/01/26 13:36:26;;;;;;;3.08;1.80;;;;;;;-147.11;100.00;72537.44;5051340;28;20083;-34
2024/01/26 13:38:51;;;;;;;2.80;2.35;;;;;;;-147.11;100.00;72537.44;5051195;28;20037;-34
2024/01/26 13:41:17;;;;;;;6.93;2.17;;;;;;;-147.11;100.00;72537.44;5051332;28;20090;-38
2024/01/26 13:43:43;;;;;;;2.85;1.90;;;;;;;-147.11;100.00;72537.44;5054306;28;20041;-39
2024/01/26 13:46:09;;;;;;;5.85;2.35;;;;;;;-147.11;100.00;72537.44;5055328;28;20053;-41
2024/01/26 13:48:35;;;;;;;2.83;2.05;;;;;;;-147.11;100.00;72537.44;5055214;28;20055;-36
2024/01/26 13:51:00;;;;;;;3.10;2.10;;;;;;;-147.11;100.00;72537.44;5055285;28;20033;-34
2024/01/26 13:53:26;;;;;;;2.90;2.00;;;;;;;-147.11;100.00;72537.44;5054040;28;20044;-35
2024/01/26 13:55:51;;;;;;;2.97;2.15;;;;;;;-147.11;100.00;72537.44;5055168;28;20473;-34
2024/01/26 13:58:17;;;;;;;4.40;1.90;;;;;;;-147.11;100.00;72537.44;5054699;28;20186;-38
2024/01/26 14:00:44;;;;;;;3.13;1.90;;;;;;;-147.11;100.00;72537.44;5054907;28;20042;-38
2024/01/26 14:03:10;;;;;;;3.67;2.20;;;;;;;-147.11;100.00;72537.44;5054931;28;20048;-36
2024/01/26 14:05:37;;;;;;;3.42;1.92;;;;;;;-147.11;100.00;72537.44;5055078;28;20043;-36
2024/01/26 14:08:06;;;;;;;3.08;2.30;;;;;;;-147.11;100.00;72537.44;5054818;28;20052;-38
2024/01/26 14:10:32;;;;;;;3.50;2.17;;;;;;;-147.11;100.00;72537.44;5054736;28;20037;-36
2024/01/26 14:12:58;;;;;;;3.30;2.25;;;;;;;-147.11;100.00;72537.44;5054888;28;20047;-35
2024/01/26 14:15:24;;;;;;;3.40;2.35;;;;;;;-147.11;100.00;72537.44;5054684;28;20116;-38
2024/01/26 14:17:50;;;;;;;4.03;1.90;;;;;;;-147.11;100.00;72537.44;5045326;28;20029;-36
2024/01/26 14:20:19;;;;;;;3.28;2.30;;;;;;;-147.11;100.00;72537.44;5036410;28;20037;-37
2024/01/26 14:22:44;;;;;;;2.53;1.83;;;;;;;-147.11;100.00;72537.44;5034873;28;20052;-35
2024/01/26 14:25:10;;;;;;;3.65;1.67;;;;;;;-147.11;100.00;72537.44;5034778;28;20116;-34
2024/01/26 14:27:35;;;;;;;4.35;2.83;;;;;;;-147.11;100.00;72537.44;5034588;28;20045;-37
2024/01/26 14:30:01;;;;;;;2.63;2.00;;;;;;;-147.11;100.00;72537.44;5034708;28;20075;-36
2024/01/26 14:32:26;;;;;;;3.10;2.08;;;;;;;-147.11;100.00;72537.44;5034717;28;20136;-37
2024/01/26 14:34:51;;;;;;;3.78;2.50;;;;;;;-147.11;100.00;72537.44;5034655;28;20095;-38
2024/01/26 14:37:18;;;;;;;3.60;2.25;;;;;;;-147.11;100.00;72537.44;5034365;28;20034;-37
2024/01/26 14:39:43;;;;;;;2.95;2.20;;;;;;;-147.11;100.00;72537.44;5034538;28;20049;-38
2024/01/26 14:42:08;;;;;;;4.03;2.17;;;;;;;-147.11;100.00;72537.44;5034464;28;20053;-36
2024/01/26 14:44:35;;;;;;;2.50;1.80;;;;;;;-147.11;100.00;72537.44;5034339;28;20057;-37
2024/01/26 14:47:01;;;;;;;3.10;2.10;;;;;;;-147.11;100.00;72537.44;5034071;28;20135;-36
2024/01/26 14:49:26;;;;;;;3.05;2.00;;;;;;;-147.11;100.00;72537.44;5034517;28;20049;-35
2024/01/26 14:51:52;;;;;;;3.10;2.05;;;;;;;-147.11;100.00;72537.44;5034312;28;20045;-40
2024/01/26 14:54:17;;;;;;;3.17;1.95;;;;;;;-147.11;100.00;72537.44;5033889;28;20099;-36
2024/01/26 14:56:44;;;;;;;4.82;2.22;;;;;;;-147.11;100.00;72537.44;5034304;28;20042;-36
2024/01/26 14:59:09;;;;;;;2.50;1.95;;;;;;;-147.11;100.00;72537.44;5034006;28;20132;-35
2024/01/26 15:01:35;;;;;;;3.83;1.88;;;;;;;-147.11;100.00;72537.44;5034333;28;20172;-40
2024/01/26 15:04:01;;;;;;;3.30;2.17;;;;;;;-147.11;100.00;72537.44;5034251;28;20045;-35
2024/01/26 15:06:26;;;;;;;2.88;1.80;;;;;;;-147.11;100.00;72537.44;5032807;28;20397;-36
2024/01/26 15:08:51;;;;;;;2.20;1.60;;;;;;;-147.11;100.00;72537.44;5033907;28;20040;-35
2024/01/26 15:11:17;;;;;;;2.70;1.92;;;;;;;-147.11;100.00;72537.44;5033925;28;20100;-38
2024/01/26 15:13:43;;;;;;;3.83;1.90;;;;;;;-147.11;100.00;72537.44;5033969;28;20037;-35
2024/01/26 15:16:14;;;;;;;4.65;2.30;;;;;;;-147.11;100.00;72537.44;5033807;28;20037;-38
2024/01/26 15:18:40;;;;;;;4.18;2.15;;;;;;;-147.11;100.00;72537.44;5033664;28;20045;-39
2024/01/26 15:21:06;;;;;;;3.00;1.90;;;;;;;-147.11;100.00;72537.44;5033636;28;20052;-36
2024/01/26 15:23:32;;;;;;;3.13;2.42;;;;;;;-147.11;100.00;72537.44;5033814;28;20056;-35
2024/01/26 15:25:57;;;;;;;3.67;1.92;;;;;;;-147.11;100.00;72537.44;5033605;28;20489;-36
2024/01/26 15:28:23;;;;;;;2.25;2.00;;;;;;;-147.11;100.00;72537.44;5033595;28;20374;-36
2024/01/26 15:30:48;;;;;;;3.42;2.25;;;;;;;-147.11;100.00;72537.44;5038909;28;20091;-40
2024/01/26 15:33:14;;;;;;;3.47;1.80;;;;;;;-147.11;100.00;72537.44;5043145;28;20044;-39
2024/01/26 15:35:39;;;;;;;3.90;2.22;;;;;;;-147.11;100.00;72537.44;5042438;28;20094;-39
2024/01/26 15:38:07;;;;;;;4.13;2.40;;;;;;;-147.11;100.00;72537.44;5043817;28;20083;-36
2024/01/26 15:40:34;;;;;;;3.85;2.47;;;;;;;-147.11;100.00;72537.44;5042619;28;20099;-35
2024/01/26 15:43:00;;;;;;;6.83;2.60;;;;;;;-147.11;100.00;72537.44;5042073;28;20029;-34
2024/01/26 15:45:25;;;;;;;3.85;2.70;;;;;;;-147.11;100.00;72537.44;5043715;28;20378;-34
2024/01/26 15:47:51;;;;;;;4.03;2.10;;;;;;;-147.11;100.00;72537.44;5051251;28;20037;-35
2024/01/26 15:50:17;;;;;;;2.85;2.28;;;;;;;-147.11;100.00;72537.44;5053045;28;20048;-35
2024/01/26 15:52:42;;;;;;;3.60;1.90;;;;;;;-147.11;100.00;72537.44;5052973;28;20041;-39
2024/01/26 15:55:08;;;;;;;2.75;1.92;;;;;;;-147.11;100.00;72537.44;5052979;28;20048;-34
2024/01/26 15:57:34;;;;;;;3.00;2.00;;;;;;;-147.11;100.00;72537.44;5049576;28;20037;-34
2024/01/26 15:59:59;;;;;;;4.00;1.73;;;;;;;-147.11;100.00;72537.44;5042786;28;20485;-34
2024/01/26 16:02:24;;;;;;;3.53;1.70;;;;;;;-147.11;100.00;72537.44;5042867;28;20159;-38
2024/01/26 16:04:51;;;;;;;3.05;1.88;;;;;;;-147.11;100.00;72537.44;5040721;28;20132;-38
2024/01/26 16:07:17;;;;;;;2.35;1.95;;;;;;;-147.11;100.00;72537.44;5042680;28;20045;-37
2024/01/26 16:09:42;;;;;;;3.25;2.10;;;;;;;-147.11;100.00;72537.44;5041662;28;20039;-34
2024/01/26 16:12:08;;;;;;;2.58;1.50;;;;;;;-147.11;100.00;72537.44;5041121;28;20032;-36
2024/01/26 16:14:33;;;;;;;2.60;1.83;;;;;;;-147.11;100.00;72537.44;5042523;28;20041;-36
2024/01/26 16:16:58;;;;;;;1.90;1.48;;;;;;;-147.11;100.00;72537.44;5040690;28;20029;-34
2024/01/26 16:19:24;;;;;;;2.13;1.67;;;;;;;-147.11;100.00;72537.44;5041557;28;20069;-37
2024/01/26 16:21:49;;;;;;;2.17;1.27;;;;;;;-147.11;100.00;72537.44;5042910;28;20102;-37
2024/01/26 16:24:15;;;;;;;1.80;1.40;;;;;;;-147.11;100.00;72537.44;5039674;28;20033;-34
2024/01/26 16:26:40;;;;;;;1.55;1.30;;;;;;;-147.11;100.00;72537.44;5052257;28;20627;-35
2024/01/26 16:29:07;;;;;;;1.65;1.25;;;;;;;-147.11;100.00;72537.44;5052061;28;20552;-35
2024/01/26 16:31:34;;;;;;;1.90;1.20;;;;;;;-147.11;100.00;72537.44;5052197;28;20431;-34
2024/01/26 17:32:56;;;;;;;3.67;1.85;;;;;;;7.43;100.00;101770.28;5088944;28;20390;-35
2024/01/26 17:35:22;;;;;;;4.18;2.00;;;;;;;7.49;100.00;101776.84;5089016;28;20036;-33